createdAt,value
2024-02-22T00:00:50.953Z,988.4
2024-02-22T00:02:05.247Z,988.4
2024-02-22T00:03:18.556Z,988.3
2024-02-22T00:04:32.849Z,988.3
2024-02-22T00:05:47.142Z,988.3
2024-02-22T00:07:01.435Z,988.3
2024-02-22T00:08:15.728Z,988.2
2024-02-22T00:09:30.022Z,988.2
2024-02-22T00:10:44.315Z,988.2
2024-02-22T00:11:58.608Z,988.2
2024-02-22T00:13:12.902Z,988.1
2024-02-22T00:14:27.194Z,988.2
2024-02-22T00:16:55.780Z,988.1
2024-02-22T00:18:10.074Z,988
2024-02-22T00:19:23.383Z,988.1
2024-02-22T00:20:37.676Z,988.1
2024-02-22T00:21:51.970Z,988
2024-02-22T00:23:06.263Z,987.9
2024-02-22T00:24:20.557Z,987.9
2024-02-22T00:25:34.850Z,987.9
2024-02-22T00:26:49.143Z,987.9
2024-02-22T00:28:03.437Z,987.9
2024-02-22T00:29:17.730Z,987.8
2024-02-22T00:30:32.024Z,987.8
2024-02-22T00:31:46.317Z,987.7
2024-02-22T00:33:00.611Z,987.7
2024-02-22T00:34:14.904Z,987.7
2024-02-22T00:35:28.214Z,987.7
2024-02-22T00:36:42.507Z,987.7
2024-02-22T00:37:56.800Z,987.7
2024-02-22T00:39:11.093Z,987.7
2024-02-22T00:40:25.386Z,987.7
2024-02-22T00:41:39.679Z,987.6
2024-02-22T00:42:53.973Z,987.6
2024-02-22T00:44:08.266Z,987.6
2024-02-22T00:45:22.560Z,987.5
2024-02-22T00:46:36.853Z,987.5
2024-02-22T00:47:51.146Z,987.4
2024-02-22T00:49:05.439Z,987.4
2024-02-22T00:50:19.732Z,987.3
2024-02-22T00:51:33.042Z,987.2
2024-02-22T00:52:47.335Z,987.3
2024-02-22T00:54:01.628Z,987.3
2024-02-22T00:55:15.921Z,987.2
2024-02-22T00:56:30.214Z,987.2
2024-02-22T00:57:44.507Z,987.2
2024-02-22T00:58:58.800Z,987.2
2024-02-22T01:00:13.093Z,987.1
2024-02-22T01:01:27.387Z,987.1
2024-02-22T01:02:41.680Z,987.1
2024-02-22T01:03:55.973Z,987
2024-02-22T01:05:10.266Z,987
2024-02-22T01:06:24.559Z,986.9
2024-02-22T01:07:37.868Z,986.9
2024-02-22T01:08:52.161Z,986.9
2024-02-22T01:10:06.454Z,986.9
2024-02-22T01:11:20.747Z,986.8
2024-02-22T01:12:35.040Z,986.8
2024-02-22T01:13:49.333Z,986.8
2024-02-22T01:15:03.627Z,986.8
2024-02-22T01:16:17.920Z,986.7
2024-02-22T01:17:32.213Z,986.7
2024-02-22T01:18:46.505Z,986.6
2024-02-22T01:20:00.798Z,986.6
2024-02-22T01:21:15.092Z,986.5
2024-02-22T01:22:29.384Z,986.5
2024-02-22T01:23:42.694Z,986.5
2024-02-22T01:24:56.988Z,986.4
2024-02-22T01:26:11.281Z,986.4
2024-02-22T01:27:25.574Z,986.4
2024-02-22T01:28:39.867Z,986.4
2024-02-22T01:29:54.160Z,986.3
2024-02-22T01:31:08.453Z,986.3
2024-02-22T01:32:22.746Z,986.3
2024-02-22T01:33:37.039Z,986.2
2024-02-22T01:34:51.332Z,986.2
2024-02-22T01:36:05.625Z,986.1
2024-02-22T01:37:19.918Z,986.1
2024-02-22T01:38:34.212Z,986
2024-02-22T01:39:47.521Z,986.1
2024-02-22T01:41:01.814Z,986.1
2024-02-22T01:42:16.107Z,986.1
2024-02-22T01:43:30.400Z,986
2024-02-22T01:44:44.693Z,986
2024-02-22T01:45:58.986Z,986
2024-02-22T01:47:13.280Z,985.9
2024-02-22T01:48:27.573Z,985.9
2024-02-22T01:49:41.866Z,985.9
2024-02-22T01:50:56.159Z,985.9
2024-02-22T01:52:10.452Z,985.9
2024-02-22T01:53:24.745Z,985.9
2024-02-22T01:54:39.038Z,985.8
2024-02-22T01:55:52.347Z,985.8
2024-02-22T01:57:06.640Z,985.8
2024-02-22T01:58:20.934Z,985.8
2024-02-22T01:59:35.227Z,985.7
2024-02-22T02:00:49.520Z,985.7
2024-02-22T02:02:03.813Z,985.7
2024-02-22T02:03:18.107Z,985.6
2024-02-22T02:04:32.400Z,985.6
2024-02-22T02:05:46.694Z,985.6
2024-02-22T02:07:00.987Z,985.6
2024-02-22T02:08:15.281Z,985.5
2024-02-22T02:09:29.575Z,985.5
2024-02-22T02:10:43.868Z,985.4
2024-02-22T02:11:57.178Z,985.4
2024-02-22T02:13:11.472Z,985.4
2024-02-22T02:14:25.765Z,985.4
2024-02-22T02:15:40.059Z,985.3
2024-02-22T02:16:54.352Z,985.3
2024-02-22T02:18:08.646Z,985.2
2024-02-22T02:19:22.940Z,985.2
2024-02-22T02:20:37.233Z,985.2
2024-02-22T02:21:51.527Z,985.2
2024-02-22T02:23:05.821Z,985.2
2024-02-22T02:24:20.114Z,985.1
2024-02-22T02:25:34.408Z,985.1
2024-02-22T02:26:48.701Z,985
2024-02-22T02:28:02.011Z,985
2024-02-22T02:29:16.305Z,985
2024-02-22T02:30:30.599Z,985
2024-02-22T02:31:44.893Z,984.9
2024-02-22T02:32:59.187Z,984.9
2024-02-22T02:34:13.481Z,984.9
2024-02-22T02:35:26.796Z,984.5
2024-02-22T02:36:41.089Z,984.8
2024-02-22T02:37:55.383Z,984.8
2024-02-22T02:39:09.677Z,984.8
2024-02-22T02:40:23.971Z,984.7
2024-02-22T02:41:38.265Z,984.7
2024-02-22T02:42:52.559Z,984.7
2024-02-22T02:44:06.852Z,984.7
2024-02-22T02:45:21.146Z,984.7
2024-02-22T02:46:35.440Z,984.7
2024-02-22T02:47:49.733Z,984.7
2024-02-22T02:49:04.027Z,984.6
2024-02-22T02:50:18.321Z,984.6
2024-02-22T02:51:31.631Z,984.6
2024-02-22T02:52:45.924Z,984.6
2024-02-22T02:54:00.218Z,984.6
2024-02-22T02:55:14.512Z,984.5
2024-02-22T02:56:28.806Z,984.5
2024-02-22T02:57:43.100Z,984.5
2024-02-22T02:58:57.393Z,984.5
2024-02-22T03:00:11.687Z,984.5
2024-02-22T03:01:25.980Z,984.4
2024-02-22T03:02:40.274Z,984.4
2024-02-22T03:05:08.861Z,984.3
2024-02-22T03:06:23.155Z,984.3
2024-02-22T03:07:36.464Z,984.3
2024-02-22T03:08:50.758Z,984.3
2024-02-22T03:10:05.052Z,984.2
2024-02-22T03:11:19.345Z,984.2
2024-02-22T03:12:33.639Z,984.2
2024-02-22T03:13:47.932Z,984.1
2024-02-22T03:15:02.226Z,984.1
2024-02-22T03:16:16.519Z,984.1
2024-02-22T03:17:30.813Z,984
2024-02-22T03:18:45.106Z,984.1
2024-02-22T03:19:59.400Z,984
2024-02-22T03:21:13.693Z,984
2024-02-22T03:22:27.987Z,984
2024-02-22T03:23:41.297Z,984
2024-02-22T03:24:55.590Z,983.9
2024-02-22T03:26:09.884Z,983.9
2024-02-22T03:27:24.177Z,983.9
2024-02-22T03:28:38.471Z,983.9
2024-02-22T03:29:52.764Z,983.9
2024-02-22T03:31:07.058Z,983.8
2024-02-22T03:32:21.351Z,983.8
2024-02-22T03:33:35.645Z,983.8
2024-02-22T03:34:49.940Z,983.8
2024-02-22T03:36:04.233Z,983.8
2024-02-22T03:37:18.527Z,983.8
2024-02-22T03:38:32.820Z,983.8
2024-02-22T03:39:46.130Z,983.8
2024-02-22T03:41:00.423Z,983.8
2024-02-22T03:42:14.717Z,983.8
2024-02-22T03:43:29.010Z,983.8
2024-02-22T03:44:43.304Z,983.7
2024-02-22T03:45:57.598Z,983.7
2024-02-22T03:47:11.891Z,983.6
2024-02-22T03:48:26.185Z,983.6
2024-02-22T03:49:40.478Z,983.6
2024-02-22T03:50:54.771Z,983.5
2024-02-22T03:52:09.065Z,983.5
2024-02-22T03:53:23.358Z,983.5
2024-02-22T03:54:37.652Z,983.5
2024-02-22T03:55:50.962Z,983.5
2024-02-22T03:57:05.255Z,983.5
2024-02-22T03:58:19.549Z,983.5
2024-02-22T03:59:33.842Z,983.4
2024-02-22T04:00:48.136Z,983.4
2024-02-22T04:02:02.429Z,983.4
2024-02-22T04:03:16.723Z,983.3
2024-02-22T04:04:31.016Z,983.3
2024-02-22T04:05:45.310Z,983.3
2024-02-22T04:06:59.603Z,983.2
2024-02-22T04:08:13.897Z,983.2
2024-02-22T04:09:28.190Z,983.3
2024-02-22T04:10:42.484Z,983.2
2024-02-22T04:11:55.793Z,983.2
2024-02-22T04:13:10.087Z,983.2
2024-02-22T04:14:24.380Z,983.2
2024-02-22T04:15:38.674Z,983.2
2024-02-22T04:16:52.967Z,983.1
2024-02-22T04:18:07.261Z,983.1
2024-02-22T04:19:21.554Z,983
2024-02-22T04:20:35.848Z,983
2024-02-22T04:21:50.141Z,983
2024-02-22T04:23:04.435Z,983
2024-02-22T04:24:18.728Z,983
2024-02-22T04:25:33.022Z,983
2024-02-22T04:26:47.315Z,983
2024-02-22T04:28:00.625Z,983
2024-02-22T04:29:14.919Z,982.9
2024-02-22T04:30:29.212Z,982.9
2024-02-22T04:31:43.506Z,982.9
2024-02-22T04:32:57.800Z,982.9
2024-02-22T04:34:12.094Z,982.9
2024-02-22T04:35:26.387Z,982.9
2024-02-22T04:36:40.681Z,982.8
2024-02-22T04:37:54.974Z,982.8
2024-02-22T04:39:09.268Z,982.8
2024-02-22T04:40:23.561Z,982.8
2024-02-22T04:41:37.855Z,982.8
2024-02-22T04:42:52.148Z,982.8
2024-02-22T04:44:06.442Z,982.8
2024-02-22T04:45:19.752Z,982.8
2024-02-22T04:46:34.045Z,982.7
2024-02-22T04:47:48.338Z,982.7
2024-02-22T04:49:02.632Z,982.7
2024-02-22T04:50:16.926Z,982.7
2024-02-22T04:51:31.219Z,982.6
2024-02-22T04:52:45.513Z,982.6
2024-02-22T04:53:59.806Z,982.6
2024-02-22T04:55:14.100Z,982.6
2024-02-22T04:56:28.393Z,982.6
2024-02-22T04:57:42.687Z,982.5
2024-02-22T04:58:56.980Z,982.5
2024-02-22T05:00:11.274Z,982.5
2024-02-22T05:01:24.584Z,982.4
2024-02-22T05:02:38.877Z,982.4
2024-02-22T05:03:53.171Z,982.4
2024-02-22T05:05:07.464Z,982.4
2024-02-22T05:06:21.758Z,982.3
2024-02-22T05:07:36.051Z,982.4
2024-02-22T05:08:50.345Z,982.3
2024-02-22T05:10:04.638Z,982.3
2024-02-22T05:11:18.932Z,982.2
2024-02-22T05:12:33.225Z,982.2
2024-02-22T05:13:47.519Z,982.2
2024-02-22T05:15:01.812Z,982.2
2024-02-22T05:16:16.106Z,982.2
2024-02-22T05:17:29.415Z,982.2
2024-02-22T05:18:43.709Z,982.1
2024-02-22T05:19:58.002Z,982.1
2024-02-22T05:21:12.296Z,982.1
2024-02-22T05:22:26.590Z,982.1
2024-02-22T05:23:40.883Z,982
2024-02-22T05:24:55.177Z,982
2024-02-22T05:26:09.470Z,982
2024-02-22T05:27:23.764Z,982
2024-02-22T05:28:38.057Z,982
2024-02-22T05:29:52.351Z,981.9
2024-02-22T05:31:06.644Z,981.9
2024-02-22T05:32:20.938Z,981.9
2024-02-22T05:33:34.247Z,981.9
2024-02-22T05:34:48.541Z,981.9
2024-02-22T05:36:02.834Z,981.9
2024-02-22T05:37:17.128Z,981.8
2024-02-22T05:38:31.421Z,981.8
2024-02-22T05:39:45.715Z,981.9
2024-02-22T05:41:00.008Z,981.8
2024-02-22T05:42:14.302Z,981.8
2024-02-22T05:43:28.596Z,981.8
2024-02-22T05:44:42.889Z,981.8
2024-02-22T05:45:57.183Z,981.8
2024-02-22T05:47:11.422Z,981.8
2024-02-22T05:48:25.716Z,981.8
2024-02-22T05:49:38.983Z,981.7
2024-02-22T05:50:53.222Z,981.7
2024-02-22T05:52:07.516Z,981.7
2024-02-22T05:53:21.810Z,981.7
2024-02-22T05:54:36.061Z,981.6
2024-02-22T05:55:50.301Z,981.7
2024-02-22T05:57:04.540Z,981.7
2024-02-22T05:58:18.780Z,981.6
2024-02-22T05:59:33.019Z,981.5
2024-02-22T06:00:47.259Z,981.5
2024-02-22T06:02:01.498Z,981.5
2024-02-22T06:03:15.738Z,981.5
2024-02-22T06:04:29.979Z,981.5
2024-02-22T06:05:43.234Z,981.5
2024-02-22T06:06:57.474Z,981.5
2024-02-22T06:08:11.713Z,981.5
2024-02-22T06:09:25.953Z,981.4
2024-02-22T06:10:40.192Z,981.4
2024-02-22T06:11:54.432Z,981.4
2024-02-22T06:13:08.671Z,981.4
2024-02-22T06:14:22.911Z,981.4
2024-02-22T06:15:37.151Z,981.4
2024-02-22T06:16:51.390Z,981.4
2024-02-22T06:18:05.630Z,981.3
2024-02-22T06:19:19.869Z,981.4
2024-02-22T06:20:34.109Z,981.4
2024-02-22T06:21:47.364Z,981.3
2024-02-22T06:23:01.604Z,981.3
2024-02-22T06:24:15.843Z,981.4
2024-02-22T06:25:30.083Z,981.3
2024-02-22T06:26:44.323Z,981.2
2024-02-22T06:27:58.562Z,981.2
2024-02-22T06:29:12.802Z,981.2
2024-02-22T06:30:27.041Z,981.2
2024-02-22T06:31:41.281Z,981.2
2024-02-22T06:32:55.520Z,981.2
2024-02-22T06:34:09.725Z,981.2
2024-02-22T06:35:24.000Z,981.2
2024-02-22T06:36:38.239Z,981.1
2024-02-22T06:37:51.495Z,981.1
2024-02-22T06:39:05.735Z,981.1
2024-02-22T06:40:19.974Z,981.1
2024-02-22T06:41:34.214Z,981.1
2024-02-22T06:42:48.453Z,981.1
2024-02-22T06:44:01.714Z,981
2024-02-22T06:45:15.954Z,981
2024-02-22T06:46:30.193Z,981
2024-02-22T06:47:44.433Z,981
2024-02-22T06:48:58.673Z,981
2024-02-22T06:50:12.912Z,981
2024-02-22T06:51:27.152Z,980.9
2024-02-22T06:52:41.391Z,980.8
2024-02-22T06:53:55.631Z,980.8
2024-02-22T06:55:09.870Z,980.8
2024-02-22T06:56:24.110Z,980.8
2024-02-22T06:57:38.349Z,980.8
2024-02-22T06:58:52.589Z,980.7
2024-02-22T07:00:05.845Z,980.8
2024-02-22T07:01:20.084Z,980.8
2024-02-22T07:02:34.324Z,980.7
2024-02-22T07:03:48.563Z,980.7
2024-02-22T07:05:02.803Z,980.7
2024-02-22T07:06:17.042Z,980.7
2024-02-22T07:07:31.282Z,980.7
2024-02-22T07:08:45.521Z,980.7
2024-02-22T07:09:59.761Z,980.7
2024-02-22T07:11:14.001Z,980.7
2024-02-22T07:12:28.240Z,980.7
2024-02-22T07:13:42.480Z,980.7
2024-02-22T07:14:56.719Z,980.7
2024-02-22T07:16:09.975Z,980.7
2024-02-22T07:17:24.215Z,980.7
2024-02-22T07:18:38.454Z,980.7
2024-02-22T07:19:52.694Z,980.7
2024-02-22T07:21:06.934Z,980.6
2024-02-22T07:22:21.173Z,980.6
2024-02-22T07:23:35.413Z,980.6
2024-02-22T07:24:49.652Z,980.6
2024-02-22T07:26:03.892Z,980.6
2024-02-22T07:27:18.131Z,980.6
2024-02-22T07:28:32.371Z,980.5
2024-02-22T07:29:46.610Z,980.5
2024-02-22T07:31:00.850Z,980.5
2024-02-22T07:32:14.106Z,980.5
2024-02-22T07:33:28.345Z,980.4
2024-02-22T07:34:42.585Z,980.4
2024-02-22T07:35:56.824Z,980.5
2024-02-22T07:37:11.064Z,980.5
2024-02-22T07:38:25.303Z,980.5
2024-02-22T07:39:39.543Z,980.5
2024-02-22T07:40:53.782Z,980.5
2024-02-22T07:42:08.022Z,980.4
2024-02-22T07:43:22.262Z,980.4
2024-02-22T07:44:36.501Z,980.4
2024-02-22T07:45:50.741Z,980.4
2024-02-22T07:47:04.980Z,980.4
2024-02-22T07:48:18.236Z,980.4
2024-02-22T07:49:32.475Z,980.3
2024-02-22T07:50:46.715Z,980.3
2024-02-22T07:52:00.954Z,980.3
2024-02-22T07:53:15.194Z,980.3
2024-02-22T07:54:29.433Z,980.3
2024-02-22T07:55:43.673Z,980.3
2024-02-22T07:56:57.912Z,980.3
2024-02-22T07:58:12.152Z,980.2
2024-02-22T07:59:26.391Z,980.2
2024-02-22T08:00:40.631Z,980.2
2024-02-22T08:01:54.870Z,980.2
2024-02-22T08:03:09.110Z,980.2
2024-02-22T08:04:22.366Z,980.2
2024-02-22T08:05:36.606Z,980.2
2024-02-22T08:06:50.846Z,980.2
2024-02-22T08:08:05.085Z,980.2
2024-02-22T08:09:19.325Z,980.2
2024-02-22T08:10:33.564Z,980.2
2024-02-22T08:11:47.804Z,980.2
2024-02-22T08:13:02.044Z,980.1
2024-02-22T08:14:16.284Z,980.1
2024-02-22T08:15:30.524Z,980.1
2024-02-22T08:16:44.764Z,980.1
2024-02-22T08:17:59.004Z,980.1
2024-02-22T08:19:13.243Z,980.1
2024-02-22T08:20:26.499Z,980.1
2024-02-22T08:21:40.739Z,980.1
2024-02-22T08:22:54.979Z,980.1
2024-02-22T08:24:09.220Z,980.1
2024-02-22T08:25:23.460Z,980
2024-02-22T08:26:37.700Z,980.1
2024-02-22T08:27:51.939Z,980
2024-02-22T08:29:06.179Z,980
2024-02-22T08:30:20.418Z,980
2024-02-22T08:31:34.658Z,980
2024-02-22T08:32:48.897Z,980
2024-02-22T08:34:03.137Z,980
2024-02-22T08:35:17.377Z,980
2024-02-22T08:36:30.633Z,980
2024-02-22T08:37:44.873Z,980
2024-02-22T08:38:59.113Z,980
2024-02-22T08:40:13.352Z,980
2024-02-22T08:41:27.592Z,979.9
2024-02-22T08:42:41.831Z,979.9
2024-02-22T08:43:56.071Z,979.9
2024-02-22T08:45:10.311Z,979.9
2024-02-22T08:46:24.551Z,979.9
2024-02-22T08:47:38.791Z,979.9
2024-02-22T08:48:53.030Z,979.9
2024-02-22T08:50:07.270Z,979.9
2024-02-22T08:51:21.510Z,979.9
2024-02-22T08:52:34.766Z,979.9
2024-02-22T08:53:49.006Z,979.9
2024-02-22T08:55:03.246Z,980
2024-02-22T08:56:17.485Z,979.9
2024-02-22T08:57:31.725Z,979.9
2024-02-22T08:58:45.965Z,979.9
2024-02-22T09:00:00.205Z,979.9
2024-02-22T09:01:14.445Z,979.9
2024-02-22T09:02:28.685Z,979.8
2024-02-22T09:03:42.924Z,979.9
2024-02-22T09:04:57.163Z,979.8
2024-02-22T09:06:11.403Z,979.8
2024-02-22T09:07:25.642Z,979.7
2024-02-22T09:08:38.897Z,979.7
2024-02-22T09:09:53.136Z,979.6
2024-02-22T09:11:07.376Z,979.6
2024-02-22T09:12:21.616Z,979.6
2024-02-22T09:13:35.855Z,979.6
2024-02-22T09:14:50.094Z,979.6
2024-02-22T09:16:04.334Z,979.7
2024-02-22T09:17:18.573Z,979.6
2024-02-22T09:18:32.813Z,979.7
2024-02-22T09:19:47.052Z,979.6
2024-02-22T09:21:01.291Z,979.6
2024-02-22T09:22:15.530Z,979.6
2024-02-22T09:23:29.769Z,979.5
2024-02-22T09:24:43.024Z,979.5
2024-02-22T09:25:57.263Z,979.4
2024-02-22T09:27:11.502Z,979.4
2024-02-22T09:28:25.741Z,979.4
2024-02-22T09:29:39.981Z,979.4
2024-02-22T09:30:54.220Z,979.5
2024-02-22T09:32:08.459Z,979.4
2024-02-22T09:33:22.699Z,979.4
2024-02-22T09:34:36.938Z,979.4
2024-02-22T09:35:51.177Z,979.4
2024-02-22T09:37:05.417Z,979.3
2024-02-22T09:38:19.656Z,979.3
2024-02-22T09:39:33.896Z,979.3
2024-02-22T09:40:47.151Z,979.2
2024-02-22T09:42:01.391Z,979.2
2024-02-22T09:43:15.630Z,979.2
2024-02-22T09:44:29.870Z,979.2
2024-02-22T09:45:44.109Z,979.2
2024-02-22T09:46:58.349Z,979.2
2024-02-22T09:48:12.589Z,979.2
2024-02-22T09:49:26.828Z,979.2
2024-02-22T09:50:41.068Z,979.2
2024-02-22T09:51:55.307Z,979.2
2024-02-22T09:53:09.547Z,979.2
2024-02-22T09:54:23.786Z,979.2
2024-02-22T09:55:38.026Z,979.2
2024-02-22T09:56:51.281Z,979.2
2024-02-22T09:58:05.520Z,979.2
2024-02-22T09:59:19.760Z,979.2
2024-02-22T10:00:33.999Z,979.2
2024-02-22T10:01:48.239Z,979.2
2024-02-22T10:03:02.478Z,979.2
2024-02-22T10:04:16.718Z,979.2
2024-02-22T10:05:30.957Z,979.2
2024-02-22T10:06:45.196Z,979.1
2024-02-22T10:07:59.436Z,979.2
2024-02-22T10:09:13.675Z,979.2
2024-02-22T10:10:27.914Z,979.1
2024-02-22T10:11:42.154Z,979.1
2024-02-22T10:12:55.409Z,979.1
2024-02-22T10:14:09.649Z,979.1
2024-02-22T10:15:23.888Z,979.1
2024-02-22T10:16:38.127Z,979.1
2024-02-22T10:17:52.367Z,979.1
2024-02-22T10:19:06.606Z,979.1
2024-02-22T10:20:20.846Z,979.1
2024-02-22T10:21:35.085Z,979
2024-02-22T10:22:49.324Z,979
2024-02-22T10:24:03.564Z,979
2024-02-22T10:25:17.803Z,979
2024-02-22T10:26:32.043Z,979
2024-02-22T10:27:46.283Z,978.9
2024-02-22T10:28:59.538Z,978.9
2024-02-22T10:30:13.778Z,978.9
2024-02-22T10:31:28.018Z,978.9
2024-02-22T10:32:42.257Z,978.9
2024-02-22T10:33:56.497Z,978.9
2024-02-22T10:35:10.736Z,978.8
2024-02-22T10:36:24.975Z,978.8
2024-02-22T10:37:39.215Z,978.8
2024-02-22T10:38:53.454Z,978.7
2024-02-22T10:40:07.693Z,978.8
2024-02-22T10:41:21.933Z,978.7
2024-02-22T10:42:36.172Z,978.7
2024-02-22T10:43:50.412Z,978.7
2024-02-22T10:45:03.667Z,978.6
2024-02-22T10:46:17.906Z,978.6
2024-02-22T10:47:32.146Z,978.6
2024-02-22T10:48:46.385Z,978.6
2024-02-22T10:50:00.624Z,978.6
2024-02-22T10:51:14.863Z,978.6
2024-02-22T10:52:28.124Z,978.5
2024-02-22T10:53:42.364Z,978.5
2024-02-22T10:54:56.603Z,978.5
2024-02-22T10:56:10.842Z,978.5
2024-02-22T10:57:25.082Z,978.5
2024-02-22T10:58:39.321Z,978.5
2024-02-22T10:59:53.560Z,978.5
2024-02-22T11:01:07.800Z,978.4
2024-02-22T11:02:22.039Z,978.5
2024-02-22T11:03:36.278Z,978.4
2024-02-22T11:04:50.518Z,978.4
2024-02-22T11:06:04.757Z,978.4
2024-02-22T11:07:18.997Z,978.4
2024-02-22T11:08:32.252Z,978.4
2024-02-22T11:09:46.491Z,978.3
2024-02-22T11:11:00.731Z,978.3
2024-02-22T11:12:14.970Z,978.3
2024-02-22T11:13:29.209Z,978.2
2024-02-22T11:14:43.449Z,978.3
2024-02-22T11:15:57.688Z,978.2
2024-02-22T11:17:11.928Z,978.1
2024-02-22T11:18:26.167Z,978.2
2024-02-22T11:19:40.406Z,978.2
2024-02-22T11:20:54.646Z,978.2
2024-02-22T11:22:08.885Z,978.1
2024-02-22T11:23:23.124Z,978.1
2024-02-22T11:24:36.380Z,978.1
2024-02-22T11:25:50.619Z,978
2024-02-22T11:27:04.858Z,978
2024-02-22T11:28:19.099Z,978
2024-02-22T11:29:33.338Z,977.9
2024-02-22T11:30:47.577Z,977.9
2024-02-22T11:32:01.817Z,977.9
2024-02-22T11:33:16.056Z,977.8
2024-02-22T11:34:30.296Z,977.9
2024-02-22T11:35:44.536Z,977.9
2024-02-22T11:36:58.775Z,977.8
2024-02-22T11:38:13.015Z,977.8
2024-02-22T11:39:27.254Z,977.8
2024-02-22T11:40:40.509Z,977.7
2024-02-22T11:41:54.749Z,977.7
2024-02-22T11:43:08.988Z,977.7
2024-02-22T11:44:23.227Z,977.7
2024-02-22T11:45:37.467Z,977.6
2024-02-22T11:46:51.706Z,977.6
2024-02-22T11:48:05.945Z,977.6
2024-02-22T11:49:20.185Z,977.6
2024-02-22T11:50:34.424Z,977.5
2024-02-22T11:51:48.664Z,977.5
2024-02-22T11:53:02.903Z,977.5
2024-02-22T11:54:17.142Z,977.4
2024-02-22T11:55:31.383Z,977.4
2024-02-22T11:56:44.638Z,977.4
2024-02-22T11:57:58.878Z,977.3
2024-02-22T11:59:13.117Z,977.3
2024-02-22T12:00:27.357Z,977.2
2024-02-22T12:01:41.596Z,977.1
2024-02-22T12:02:55.836Z,977.1
2024-02-22T12:04:10.075Z,977
2024-02-22T12:05:24.314Z,977
2024-02-22T12:06:38.554Z,977
2024-02-22T12:07:52.793Z,977
2024-02-22T12:09:07.033Z,977
2024-02-22T12:10:21.273Z,977
2024-02-22T12:11:35.513Z,977
2024-02-22T12:12:48.768Z,977
2024-02-22T12:14:03.007Z,976.9
2024-02-22T12:15:17.247Z,977
2024-02-22T12:16:31.486Z,977
2024-02-22T12:17:45.725Z,976.9
2024-02-22T12:18:59.965Z,976.9
2024-02-22T12:20:14.204Z,976.9
2024-02-22T12:21:28.444Z,976.8
2024-02-22T12:22:42.683Z,976.8
2024-02-22T12:23:56.922Z,976.8
2024-02-22T12:25:11.161Z,976.8
2024-02-22T12:26:25.401Z,976.7
2024-02-22T12:27:39.640Z,976.7
2024-02-22T12:28:52.895Z,976.6
2024-02-22T12:30:07.135Z,976.6
2024-02-22T12:31:21.374Z,976.6
2024-02-22T12:32:35.614Z,976.6
2024-02-22T12:33:49.853Z,976.6
2024-02-22T12:35:04.092Z,976.6
2024-02-22T12:36:18.332Z,976.6
2024-02-22T12:37:32.571Z,976.6
2024-02-22T12:38:46.810Z,976.6
2024-02-22T12:40:01.050Z,976.6
2024-02-22T12:41:15.289Z,976.6
2024-02-22T12:42:29.529Z,976.6
2024-02-22T12:43:43.768Z,976.6
2024-02-22T12:44:57.023Z,976.5
2024-02-22T12:46:11.263Z,976.5
2024-02-22T12:47:25.502Z,976.5
2024-02-22T12:48:39.741Z,976.5
2024-02-22T12:49:53.980Z,976.5
2024-02-22T12:51:08.220Z,976.4
2024-02-22T12:52:22.459Z,976.4
2024-02-22T12:53:36.699Z,976.3
2024-02-22T12:54:50.938Z,976.2
2024-02-22T12:56:05.177Z,976.2
2024-02-22T12:57:19.417Z,976.2
2024-02-22T12:58:33.656Z,976.2
2024-02-22T12:59:47.895Z,976.2
2024-02-22T13:01:01.151Z,976.2
2024-02-22T13:02:15.390Z,976.1
2024-02-22T13:03:29.630Z,976
2024-02-22T13:04:43.869Z,976
2024-02-22T13:05:58.108Z,976
2024-02-22T13:07:12.348Z,976
2024-02-22T13:08:26.587Z,976
2024-02-22T13:09:40.826Z,976
2024-02-22T13:10:55.066Z,976
2024-02-22T13:12:09.305Z,975.9
2024-02-22T13:13:23.545Z,975.9
2024-02-22T13:14:37.784Z,975.9
2024-02-22T13:15:52.024Z,975.8
2024-02-22T13:17:05.279Z,975.8
2024-02-22T13:18:19.519Z,975.7
2024-02-22T13:19:33.758Z,975.7
2024-02-22T13:20:47.997Z,975.6
2024-02-22T13:22:02.237Z,975.6
2024-02-22T13:23:16.476Z,975.5
2024-02-22T13:24:30.715Z,975.5
2024-02-22T13:25:44.955Z,975.5
2024-02-22T13:26:59.194Z,975.4
2024-02-22T13:28:13.434Z,975.4
2024-02-22T13:29:27.673Z,975.3
2024-02-22T13:30:41.912Z,975.3
2024-02-22T13:31:56.152Z,975.2
2024-02-22T13:33:09.407Z,975.2
2024-02-22T13:34:23.646Z,975.2
2024-02-22T13:35:37.886Z,975.1
2024-02-22T13:36:52.125Z,975.1
2024-02-22T13:38:06.365Z,975
2024-02-22T13:39:20.604Z,975.1
2024-02-22T13:40:34.843Z,975
2024-02-22T13:41:49.083Z,975
2024-02-22T13:43:03.322Z,975
2024-02-22T13:44:17.533Z,975
2024-02-22T13:45:31.801Z,975
2024-02-22T13:46:46.040Z,975
2024-02-22T13:48:00.279Z,975
2024-02-22T13:49:13.535Z,974.9
2024-02-22T13:50:27.774Z,974.9
2024-02-22T13:51:42.013Z,974.9
2024-02-22T13:52:56.253Z,974.9
2024-02-22T13:54:10.492Z,974.9
2024-02-22T13:55:24.731Z,974.8
2024-02-22T13:56:38.971Z,974.8
2024-02-22T13:57:53.210Z,974.8
2024-02-22T13:59:07.456Z,974.8
2024-02-22T14:00:21.689Z,974.7
2024-02-22T14:01:35.928Z,974.7
2024-02-22T14:02:50.167Z,974.7
2024-02-22T14:04:04.407Z,974.7
2024-02-22T14:05:17.662Z,974.7
2024-02-22T14:06:31.901Z,974.7
2024-02-22T14:07:46.141Z,974.6
2024-02-22T14:09:00.380Z,974.5
2024-02-22T14:10:14.620Z,974.5
2024-02-22T14:11:28.859Z,974.4
2024-02-22T14:12:43.098Z,974.4
2024-02-22T14:13:57.337Z,974.4
2024-02-22T14:15:11.577Z,974.4
2024-02-22T14:16:25.816Z,974.4
2024-02-22T14:17:40.055Z,974.4
2024-02-22T14:18:54.295Z,974.3
2024-02-22T14:20:08.534Z,974.3
2024-02-22T14:21:21.789Z,974.4
2024-02-22T14:22:36.029Z,974.3
2024-02-22T14:23:50.268Z,974.3
2024-02-22T14:25:04.507Z,974.3
2024-02-22T14:26:18.746Z,974.2
2024-02-22T14:27:32.986Z,974.2
2024-02-22T14:28:47.225Z,974.2
2024-02-22T14:30:01.464Z,974.2
2024-02-22T14:31:15.704Z,974.2
2024-02-22T14:32:29.943Z,974.1
2024-02-22T14:33:44.182Z,974.1
2024-02-22T14:34:58.421Z,974.1
2024-02-22T14:36:12.661Z,974.1
2024-02-22T14:37:25.916Z,974.1
2024-02-22T14:38:40.155Z,974.1
2024-02-22T14:39:54.395Z,974.1
2024-02-22T14:41:08.634Z,974.1
2024-02-22T14:42:22.873Z,974.1
2024-02-22T14:43:37.113Z,974.1
2024-02-22T14:44:51.352Z,974
2024-02-22T14:46:05.591Z,974.1
2024-02-22T14:47:19.830Z,974
2024-02-22T14:48:34.070Z,974
2024-02-22T14:49:48.309Z,974
2024-02-22T14:51:02.548Z,974.1
2024-02-22T14:52:16.789Z,974
2024-02-22T14:53:30.044Z,974
2024-02-22T14:54:44.283Z,974
2024-02-22T14:55:58.523Z,973.9
2024-02-22T14:57:12.762Z,973.9
2024-02-22T14:58:27.001Z,973.9
2024-02-22T14:59:41.241Z,973.9
2024-02-22T15:00:54.501Z,973.9
2024-02-22T15:02:08.740Z,973.9
2024-02-22T15:03:22.980Z,973.8
2024-02-22T15:04:37.219Z,973.8
2024-02-22T15:05:51.460Z,973.8
2024-02-22T15:07:05.699Z,973.8
2024-02-22T15:08:19.938Z,973.7
2024-02-22T15:09:34.177Z,973.7
2024-02-22T15:10:48.417Z,973.7
2024-02-22T15:12:02.656Z,973.6
2024-02-22T15:13:16.896Z,973.6
2024-02-22T15:14:31.135Z,973.6
2024-02-22T15:15:45.374Z,973.6
2024-02-22T15:16:58.630Z,973.5
2024-02-22T15:18:12.869Z,973.5
2024-02-22T15:19:27.108Z,973.5
2024-02-22T15:20:41.347Z,973.4
2024-02-22T15:21:55.587Z,973.4
2024-02-22T15:23:09.826Z,973.4
2024-02-22T15:24:24.066Z,973.4
2024-02-22T15:25:38.305Z,973.4
2024-02-22T15:26:52.544Z,973.3
2024-02-22T15:28:06.783Z,973.3
2024-02-22T15:29:21.023Z,973.3
2024-02-22T15:30:35.262Z,973.3
2024-02-22T15:31:49.501Z,973.3
2024-02-22T15:33:02.757Z,973.2
2024-02-22T15:34:16.996Z,973.2
2024-02-22T15:35:31.236Z,973.1
2024-02-22T15:36:45.475Z,973.1
2024-02-22T15:37:59.714Z,973.1
2024-02-22T15:39:13.953Z,973.1
2024-02-22T15:40:28.193Z,973.1
2024-02-22T15:41:42.432Z,973.1
2024-02-22T15:42:56.671Z,973.1
2024-02-22T15:44:10.910Z,973.1
2024-02-22T15:45:25.150Z,973.1
2024-02-22T15:46:39.389Z,973
2024-02-22T15:47:53.629Z,972.9
2024-02-22T15:49:06.884Z,972.8
2024-02-22T15:50:21.123Z,972.7
2024-02-22T15:51:35.363Z,972.7
2024-02-22T15:52:49.602Z,972.7
2024-02-22T15:54:03.841Z,972.6
2024-02-22T15:55:18.081Z,972.6
2024-02-22T15:56:32.320Z,972.6
2024-02-22T15:57:46.560Z,972.6
2024-02-22T15:59:00.799Z,972.6
2024-02-22T16:00:15.038Z,972.6
2024-02-22T16:01:29.277Z,972.6
2024-02-22T16:02:43.517Z,972.6
2024-02-22T16:03:57.756Z,972.5
2024-02-22T16:05:11.011Z,972.5